Time;durP1;ratioP1;P1;durP2;ratioP2;P2;SDS_P1;SDS_P2;PMS_P1;PMS_P2;Temp;Humidity;BMP_temperature;BMP_pressure;BME280_temperature;BME280_humidity;BME280_pressure;Samples;Min_cycle;Max_cycle;Signal;HPM_P1;HPM_P2
2023/03/26 00:01:20;;;;;;;9.43;2.40;;;;;;;;;;4968328;28;92427;-83
2023/03/26 00:03:52;;;;;;;8.52;2.50;;;;;;;;;;4979498;28;92296;-82
2023/03/26 00:06:21;;;;;;;9.95;2.05;;;;;;;;;;4978029;28;94919;-83
2023/03/26 00:08:48;;;;;;;10.20;2.35;;;;;;;;;;4980705;28;92641;-83
2023/03/26 00:11:15;;;;;;;10.60;2.50;;;;;;;;;;4996893;28;92460;-81
2023/03/26 00:13:45;;;;;;;7.43;2.00;;;;;;;;;;4984196;28;92719;-82
2023/03/26 00:16:13;;;;;;;8.48;2.15;;;;;;;;;;4980907;28;92434;-83
2023/03/26 00:18:41;;;;;;;11.73;2.17;;;;;;;;;;4981393;28;92119;-82
2023/03/26 00:21:09;;;;;;;8.38;1.90;;;;;;;;;;5012237;28;93719;-82
2023/03/26 00:23:37;;;;;;;9.02;1.92;;;;;;;;;;5000072;28;91605;-82
2023/03/26 00:26:09;;;;;;;9.18;2.00;;;;;;;;;;4978266;28;92294;-82
2023/03/26 00:28:37;;;;;;;6.75;2.10;;;;;;;;;;4980774;28;92673;-82
2023/03/26 00:31:04;;;;;;;8.10;1.77;;;;;;;;;;4978081;28;95351;-82
2023/03/26 00:33:30;;;;;;;;;;;;;;;;;;4979385;28;97829;-82
2023/03/26 00:35:59;;;;;;;8.90;1.73;;;;;;;;;;4983876;28;112600;-82
2023/03/26 00:38:29;;;;;;;6.55;1.55;;;;;;;;;;4980013;28;92295;-82
2023/03/26 00:40:58;;;;;;;8.80;2.15;;;;;;;;;;4965429;28;95459;-84
2023/03/26 00:43:25;;;;;;;11.55;2.00;;;;;;;;;;4995638;28;92289;-82
2023/03/26 00:45:52;;;;;;;13.27;1.98;;;;;;;;;;4978385;28;93004;-81
2023/03/26 00:48:20;;;;;;;9.15;2.00;;;;;;;;;;4995796;28;94924;-82
2023/03/26 00:51:04;;;;;;;9.48;2.00;;;;;;;;;;4980673;28;92272;-81
2023/03/26 00:53:30;;;;;;;;;;;;;;;;;;4979286;28;92681;-82
2023/03/26 00:55:59;;;;;;;10.52;2.08;;;;;;;;;;4979243;28;95404;-81
2023/03/26 00:58:26;;;;;;;11.30;2.15;;;;;;;;;;4983344;28;92409;-82
2023/03/26 01:00:56;;;;;;;11.45;2.33;;;;;;;;;;4980035;28;92440;-83
2023/03/26 01:03:28;;;;;;;9.95;1.77;;;;;;;;;;4967612;28;92335;-82
2023/03/26 01:06:01;;;;;;;11.98;2.40;;;;;;;;;;4974763;28;94514;-83
2023/03/26 01:08:29;;;;;;;9.80;2.10;;;;;;;;;;4979107;28;92778;-83
2023/03/26 01:11:01;;;;;;;8.40;1.90;;;;;;;;;;4996038;28;92936;-83
2023/03/26 01:13:30;;;;;;;10.20;2.05;;;;;;;;;;4980996;28;92434;-83
2023/03/26 01:16:00;;;;;;;9.48;2.00;;;;;;;;;;5006048;28;92784;-83
2023/03/26 01:18:32;;;;;;;9.88;2.00;;;;;;;;;;5004256;28;92308;-83
2023/03/26 01:21:04;;;;;;;12.32;2.55;;;;;;;;;;4981587;28;95119;-83
2023/03/26 01:23:39;;;;;;;16.40;2.58;;;;;;;;;;4978865;28;92435;-83
2023/03/26 01:26:26;;;;;;;11.77;2.58;;;;;;;;;;4982170;28;92752;-83
2023/03/26 01:28:54;;;;;;;11.70;2.47;;;;;;;;;;4982312;28;92257;-82
2023/03/26 01:31:35;;;;;;;12.77;2.45;;;;;;;;;;4979190;28;92294;-83
2023/03/26 01:34:11;;;;;;;13.10;2.28;;;;;;;;;;4979489;28;92261;-82
2023/03/26 01:36:47;;;;;;;13.52;2.92;;;;;;;;;;4982313;28;92897;-82
2023/03/26 01:39:18;;;;;;;11.15;2.28;;;;;;;;;;5013389;28;91726;-83
2023/03/26 01:41:49;;;;;;;13.55;2.60;;;;;;;;;;4994287;28;92657;-83
2023/03/26 01:44:24;;;;;;;10.65;2.28;;;;;;;;;;4976809;28;92723;-82
2023/03/26 01:46:51;;;;;;;9.48;2.35;;;;;;;;;;4997231;28;94860;-82
2023/03/26 01:49:18;;;;;;;12.57;2.67;;;;;;;;;;4997697;28;94901;-81
2023/03/26 01:51:46;;;;;;;15.77;2.78;;;;;;;;;;4980941;28;92492;-81
2023/03/26 01:54:15;;;;;;;10.30;2.13;;;;;;;;;;4998538;28;92427;-82
2023/03/26 01:56:42;;;;;;;10.27;2.17;;;;;;;;;;4977813;28;92934;-83
2023/03/26 01:59:15;;;;;;;12.30;2.55;;;;;;;;;;4970589;28;93870;-82
2023/03/26 02:02:03;;;;;;;13.07;2.80;;;;;;;;;;4981770;28;93544;-82
2023/03/26 02:04:39;;;;;;;13.75;2.72;;;;;;;;;;4984863;28;99210;-82
2023/03/26 02:07:10;;;;;;;14.40;2.63;;;;;;;;;;4980984;28;93804;-82
2023/03/26 02:09:41;;;;;;;11.75;2.60;;;;;;;;;;4983251;28;92711;-83
2023/03/26 02:12:08;;;;;;;11.18;2.13;;;;;;;;;;4978580;28;94839;-83
2023/03/26 02:14:35;;;;;;;13.88;2.63;;;;;;;;;;4973622;28;95060;-83
2023/03/26 02:17:01;;;;;;;13.45;3.00;;;;;;;;;;4977385;28;92670;-83
2023/03/26 02:19:28;;;;;;;13.02;2.80;;;;;;;;;;4983074;28;92343;-82
2023/03/26 02:21:58;;;;;;;14.77;2.97;;;;;;;;;;5013896;28;92605;-82
2023/03/26 02:24:26;;;;;;;14.05;2.63;;;;;;;;;;4981727;28;95320;-82
2023/03/26 02:26:56;;;;;;;15.48;2.72;;;;;;;;;;5000109;28;92057;-82
2023/03/26 02:29:25;;;;;;;18.27;3.15;;;;;;;;;;4981992;28;91592;-83
2023/03/26 02:31:52;;;;;;;12.32;2.88;;;;;;;;;;4981045;28;92684;-82
2023/03/26 02:34:19;;;;;;;17.13;2.90;;;;;;;;;;4998540;28;93843;-83
2023/03/26 02:36:51;;;;;;;18.10;2.88;;;;;;;;;;4980317;28;97657;-83
2023/03/26 02:39:17;;;;;;;13.85;2.78;;;;;;;;;;4982394;28;92108;-82
2023/03/26 02:41:52;;;;;;;16.77;3.13;;;;;;;;;;4981112;28;92722;-81
2023/03/26 02:44:19;;;;;;;16.85;2.72;;;;;;;;;;4981386;28;95085;-81
2023/03/26 02:46:57;;;;;;;16.75;2.95;;;;;;;;;;4983584;28;92332;-81
2023/03/26 02:49:50;;;;;;;18.30;3.30;;;;;;;;;;4983719;28;92634;-81
2023/03/26 02:52:25;;;;;;;13.13;2.72;;;;;;;;;;4981732;28;92435;-81
2023/03/26 02:54:55;;;;;;;13.63;2.55;;;;;;;;;;4978481;28;92859;-81
2023/03/26 02:57:23;;;;;;;14.75;2.88;;;;;;;;;;4974540;28;94502;-81
2023/03/26 03:00:12;;;;;;;19.50;2.83;;;;;;;;;;5007377;28;93420;-83
2023/03/26 03:02:46;;;;;;;16.17;3.20;;;;;;;;;;4988618;28;94551;-83
2023/03/26 03:05:30;;;;;;;13.85;2.88;;;;;;;;;;4992338;28;92456;-82
2023/03/26 03:08:18;;;;;;;12.63;2.85;;;;;;;;;;5004410;28;93723;-82
2023/03/26 03:10:59;;;;;;;14.13;3.40;;;;;;;;;;4972666;28;96563;-83
2023/03/26 03:13:37;;;;;;;14.43;2.92;;;;;;;;;;4975357;28;95684;-84
2023/03/26 03:16:03;;;;;;;16.35;3.22;;;;;;;;;;4962312;28;94172;-84
2023/03/26 03:18:30;;;;;;;13.68;3.10;;;;;;;;;;4986374;28;95063;-84
2023/03/26 03:20:56;;;;;;;17.38;3.25;;;;;;;;;;4979993;28;91604;-84
2023/03/26 03:23:23;;;;;;;16.73;3.45;;;;;;;;;;4948867;28;94017;-84
2023/03/26 03:25:55;;;;;;;12.70;2.65;;;;;;;;;;4961751;28;95108;-85
2023/03/26 03:28:24;;;;;;;16.77;3.28;;;;;;;;;;4976737;28;94940;-84
2023/03/26 03:30:52;;;;;;;15.82;3.30;;;;;;;;;;4956585;28;95219;-82
2023/03/26 03:33:27;;;;;;;14.48;2.90;;;;;;;;;;4972118;28;93065;-81
2023/03/26 03:35:53;;;;;;;14.85;3.38;;;;;;;;;;4956513;28;92807;-82
2023/03/26 03:38:21;;;;;;;;;;;;;;;;;;4988248;28;93387;-81
2023/03/26 03:40:49;;;;;;;17.92;3.72;;;;;;;;;;4977926;28;92224;-82
2023/03/26 03:43:16;;;;;;;;;;;;;;;;;;4976938;28;92669;-81
2023/03/26 03:46:00;;;;;;;17.63;3.03;;;;;;;;;;4981798;28;93875;-82
2023/03/26 03:48:40;;;;;;;16.55;3.38;;;;;;;;;;4978084;28;92463;-81
2023/03/26 03:51:07;;;;;;;17.55;3.45;;;;;;;;;;4976035;28;94538;-81
2023/03/26 03:53:55;;;;;;;16.90;3.53;;;;;;;;;;4957312;28;97855;-81
2023/03/26 03:56:54;;;;;;;16.85;3.70;;;;;;;;;;4944953;28;92415;-82
2023/03/26 03:59:48;;;;;;;16.08;3.28;;;;;;;;;;4957508;28;92792;-81
2023/03/26 04:02:33;;;;;;;15.77;3.20;;;;;;;;;;4952560;28;92537;-82
2023/03/26 04:05:04;;;;;;;12.07;3.28;;;;;;;;;;4967519;28;93693;-82
2023/03/26 04:07:31;;;;;;;13.50;3.15;;;;;;;;;;4960653;28;94853;-81
2023/03/26 04:10:04;;;;;;;16.58;3.42;;;;;;;;;;4960940;28;92234;-81
2023/03/26 04:12:57;;;;;;;15.18;2.90;;;;;;;;;;4936901;28;92572;-81
2023/03/26 04:15:43;;;;;;;13.65;3.30;;;;;;;;;;4939071;28;92668;-81
2023/03/26 04:18:10;;;;;;;14.13;3.20;;;;;;;;;;4958676;28;93257;-82
2023/03/26 04:20:45;;;;;;;15.48;3.40;;;;;;;;;;4985607;28;95378;-82
2023/03/26 04:23:16;;;;;;;16.17;3.13;;;;;;;;;;4959050;28;92518;-81
2023/03/26 04:25:49;;;;;;;18.83;3.42;;;;;;;;;;4991424;28;94677;-81
2023/03/26 04:28:27;;;;;;;13.18;3.80;;;;;;;;;;4958884;28;94468;-83
2023/03/26 04:31:16;;;;;;;20.20;3.63;;;;;;;;;;4960106;28;92472;-84
2023/03/26 04:33:45;;;;;;;16.00;3.78;;;;;;;;;;4958519;28;94785;-85
2023/03/26 04:36:15;;;;;;;17.17;3.13;;;;;;;;;;4959400;28;98703;-84
2023/03/26 04:38:42;;;;;;;;;;;;;;;;;;4976986;28;91991;-84
2023/03/26 04:41:13;;;;;;;13.93;3.17;;;;;;;;;;4994086;28;93776;-83
2023/03/26 04:43:52;;;;;;;14.75;3.47;;;;;;;;;;4959785;28;95020;-83
2023/03/26 04:46:42;;;;;;;13.10;3.47;;;;;;;;;;4956221;28;98248;-83
2023/03/26 04:49:16;;;;;;;14.98;3.50;;;;;;;;;;4962763;28;92680;-84
2023/03/26 04:51:45;;;;;;;13.13;3.30;;;;;;;;;;4973760;28;92138;-84
2023/03/26 04:54:31;;;;;;;12.32;3.47;;;;;;;;;;4967821;28;97604;-84
2023/03/26 04:57:03;;;;;;;13.45;3.13;;;;;;;;;;4960512;28;95318;-83
2023/03/26 04:59:50;;;;;;;13.05;3.22;;;;;;;;;;4959080;28;92317;-81
2023/03/26 05:02:17;;;;;;;15.43;3.88;;;;;;;;;;4961167;28;95055;-83
2023/03/26 05:04:50;;;;;;;15.90;3.45;;;;;;;;;;4963188;28;95047;-86
2023/03/26 05:07:17;;;;;;;;;;;;;;;;;;4963362;28;92250;-83
2023/03/26 05:09:47;;;;;;;12.95;3.67;;;;;;;;;;4972750;28;93128;-81
2023/03/26 05:12:15;;;;;;;;;;;;;;;;;;4955743;28;94804;-82
2023/03/26 05:15:02;;;;;;;14.43;3.20;;;;;;;;;;4961049;28;97225;-83
2023/03/26 05:17:54;;;;;;;12.88;3.13;;;;;;;;;;4957884;28;95403;-83
2023/03/26 05:20:28;;;;;;;11.48;3.20;;;;;;;;;;4960309;28;91980;-84
2023/03/26 05:22:55;;;;;;;13.27;3.22;;;;;;;;;;4976154;28;92677;-83
2023/03/26 05:25:27;;;;;;;13.48;3.60;;;;;;;;;;4959296;28;94766;-84
2023/03/26 05:27:55;;;;;;;;;;;;;;;;;;4958944;28;92719;-84
2023/03/26 05:30:25;;;;;;;11.75;3.42;;;;;;;;;;4968255;28;94122;-84
2023/03/26 05:32:56;;;;;;;13.30;3.38;;;;;;;;;;4971040;28;94544;-84
2023/03/26 05:35:28;;;;;;;12.63;3.35;;;;;;;;;;4959617;28;92868;-82
2023/03/26 05:37:56;;;;;;;13.52;3.50;;;;;;;;;;4943423;28;97269;-83
2023/03/26 05:40:24;;;;;;;15.23;3.67;;;;;;;;;;4945625;28;92512;-83
2023/03/26 05:42:59;;;;;;;13.18;3.65;;;;;;;;;;4954836;28;95200;-83
2023/03/26 05:45:34;;;;;;;11.65;3.30;;;;;;;;;;4956508;28;92836;-77
2023/03/26 05:48:13;;;;;;;15.50;3.75;;;;;;;;;;4957384;28;93310;-78
2023/03/26 05:50:39;;;;;;;14.95;3.70;;;;;;;;;;4957908;28;95401;-77
2023/03/26 05:53:06;;;;;;;12.07;4.07;;;;;;;;;;4973080;28;94867;-77
2023/03/26 05:55:57;;;;;;;13.68;3.60;;;;;;;;;;4958197;28;91945;-76
2023/03/26 05:58:42;;;;;;;12.80;3.35;;;;;;;;;;4958321;28;92303;-77
2023/03/26 06:01:28;;;;;;;13.43;3.53;;;;;;;;;;4949751;28;92337;-76
2023/03/26 06:04:15;;;;;;;11.45;3.20;;;;;;;;;;4952204;28;96637;-77
2023/03/26 06:07:11;;;;;;;15.85;3.75;;;;;;;;;;4957566;28;94409;-77
2023/03/26 06:09:41;;;;;;;15.95;3.47;;;;;;;;;;4957820;28;92395;-79
2023/03/26 06:12:09;;;;;;;14.32;3.92;;;;;;;;;;4944530;28;94586;-78
2023/03/26 06:14:37;;;;;;;13.93;3.30;;;;;;;;;;4952224;28;94901;-77
2023/03/26 06:17:13;;;;;;;13.02;3.30;;;;;;;;;;4951119;28;92300;-76
2023/03/26 06:19:58;;;;;;;11.35;3.65;;;;;;;;;;4957192;28;92854;-76
2023/03/26 06:22:33;;;;;;;14.07;3.42;;;;;;;;;;4957693;28;91779;-77
2023/03/26 06:25:26;;;;;;;10.75;3.25;;;;;;;;;;4942107;28;92610;-77
2023/03/26 06:28:04;;;;;;;15.07;3.50;;;;;;;;;;4975820;28;95060;-77
2023/03/26 06:31:00;;;;;;;13.50;3.30;;;;;;;;;;4969999;28;94642;-78
2023/03/26 06:33:32;;;;;;;13.60;3.50;;;;;;;;;;4979133;28;97221;-77
2023/03/26 06:35:59;;;;;;;11.88;3.70;;;;;;;;;;4979117;28;95398;-76
2023/03/26 06:38:26;;;;;;;15.43;4.00;;;;;;;;;;4982261;28;92549;-76
2023/03/26 06:40:52;;;;;;;13.00;3.35;;;;;;;;;;4979154;28;95286;-76
2023/03/26 06:43:40;;;;;;;14.45;3.47;;;;;;;;;;4964296;28;92364;-76
2023/03/26 06:46:32;;;;;;;13.13;3.25;;;;;;;;;;4978724;28;98199;-77
2023/03/26 06:49:34;;;;;;;12.27;3.30;;;;;;;;;;4942592;28;91907;-75
2023/03/26 06:52:20;;;;;;;11.15;3.42;;;;;;;;;;4955858;28;92598;-76
2023/03/26 06:55:01;;;;;;;11.20;3.05;;;;;;;;;;4973506;28;92814;-75
2023/03/26 06:57:49;;;;;;;11.05;3.20;;;;;;;;;;4990487;28;96972;-77
2023/03/26 07:00:39;;;;;;;14.15;3.45;;;;;;;;;;4979980;28;92165;-77
2023/03/26 07:03:24;;;;;;;9.77;3.10;;;;;;;;;;4981839;28;92232;-77
2023/03/26 07:06:09;;;;;;;12.23;3.22;;;;;;;;;;4976439;28;92430;-76
2023/03/26 07:09:11;;;;;;;14.88;3.13;;;;;;;;;;4957395;28;93337;-76
2023/03/26 07:11:40;;;;;;;10.45;2.95;;;;;;;;;;4975554;28;92749;-76
2023/03/26 07:14:26;;;;;;;11.70;2.85;;;;;;;;;;4980192;28;92288;-77
2023/03/26 07:17:28;;;;;;;12.80;3.33;;;;;;;;;;4938601;28;92983;-77
2023/03/26 07:20:11;;;;;;;14.65;3.53;;;;;;;;;;4965155;28;98845;-77
2023/03/26 07:22:39;;;;;;;9.63;3.28;;;;;;;;;;4979488;28;92415;-76
2023/03/26 07:25:26;;;;;;;13.38;3.40;;;;;;;;;;4978941;28;94707;-76
2023/03/26 07:28:12;;;;;;;11.77;2.92;;;;;;;;;;4981642;28;99600;-76
2023/03/26 07:31:10;;;;;;;12.00;3.00;;;;;;;;;;4987294;28;92366;-77
2023/03/26 07:33:53;;;;;;;12.68;3.08;;;;;;;;;;4977706;28;92737;-78
2023/03/26 07:36:42;;;;;;;14.05;2.88;;;;;;;;;;4968632;28;92496;-78
2023/03/26 07:39:46;;;;;;;20.05;3.70;;;;;;;;;;4992697;28;92769;-77
2023/03/26 07:42:45;;;;;;;17.33;3.55;;;;;;;;;;4983231;28;97654;-76
2023/03/26 07:45:32;;;;;;;14.38;3.92;;;;;;;;;;5003247;28;91346;-78
2023/03/26 07:48:36;;;;;;;17.60;4.00;;;;;;;;;;4961335;28;97954;-77
2023/03/26 07:51:13;;;;;;;15.43;3.67;;;;;;;;;;5011478;28;95401;-77
2023/03/26 07:54:08;;;;;;;16.02;3.53;;;;;;;;;;4972292;28;94637;-77
2023/03/26 07:56:58;;;;;;;15.52;4.05;;;;;;;;;;4979621;28;93403;-76
2023/03/26 08:00:08;;;;;;;17.77;3.70;;;;;;;;;;4979268;28;92471;-76
2023/03/26 08:03:09;;;;;;;13.95;4.55;;;;;;;;;;4976768;28;99298;-76
2023/03/26 08:06:17;;;;;;;18.10;3.88;;;;;;;;;;4970138;28;93846;-77
2023/03/26 08:09:01;;;;;;;21.92;4.43;;;;;;;;;;5010993;28;98989;-75
2023/03/26 08:11:50;;;;;;;18.15;5.25;;;;;;;;;;4977877;28;93608;-77
2023/03/26 08:14:39;;;;;;;16.35;4.30;;;;;;;;;;4982668;28;92627;-76
2023/03/26 08:17:12;;;;;;;18.85;4.72;;;;;;;;;;4966585;28;92867;-76
2023/03/26 08:19:57;;;;;;;23.80;4.88;;;;;;;;;;4977721;28;93070;-75
2023/03/26 08:22:26;;;;;;;16.35;3.15;;;;;;;;;;4976564;28;95763;-76
2023/03/26 08:25:09;;;;;;;13.38;3.03;;;;;;;;;;4974775;28;95222;-73
2023/03/26 08:27:42;;;;;;;10.50;2.92;;;;;;;;;;4967304;28;92767;-75
2023/03/26 08:30:22;;;;;;;8.13;2.50;;;;;;;;;;4976461;28;94517;-74
2023/03/26 08:32:57;;;;;;;9.15;2.58;;;;;;;;;;4998385;28;94998;-75
2023/03/26 08:35:24;;;;;;;8.13;2.40;;;;;;;;;;4974489;28;93147;-75
2023/03/26 08:37:52;;;;;;;11.05;2.60;;;;;;;;;;4976484;28;92966;-76
2023/03/26 08:40:18;;;;;;;;;;;;;;;;;;4981115;28;92417;-73
2023/03/26 08:42:44;;;;;;;13.63;2.67;;;;;;;;;;4977866;28;110278;-75
2023/03/26 08:45:11;;;;;;;8.20;2.45;;;;;;;;;;4993586;28;92657;-75
2023/03/26 08:47:57;;;;;;;9.45;2.47;;;;;;;;;;4957767;28;95484;-73
2023/03/26 08:50:43;;;;;;;8.93;2.75;;;;;;;;;;4959167;28;92522;-72
2023/03/26 08:53:28;;;;;;;7.53;2.42;;;;;;;;;;4965407;28;95004;-75
2023/03/26 08:56:11;;;;;;;8.40;2.47;;;;;;;;;;4976621;28;92716;-75
2023/03/26 08:59:04;;;;;;;10.45;2.50;;;;;;;;;;4977576;28;92566;-73
2023/03/26 09:01:49;;;;;;;9.05;2.47;;;;;;;;;;4977528;28;92850;-75
2023/03/26 09:04:15;;;;;;;7.50;2.10;;;;;;;;;;4981413;28;96948;-74
2023/03/26 09:07:11;;;;;;;10.50;2.58;;;;;;;;;;4974038;28;94027;-74
2023/03/26 09:10:01;;;;;;;9.38;2.55;;;;;;;;;;4953485;28;95057;-74
2023/03/26 09:12:31;;;;;;;9.93;2.47;;;;;;;;;;4976758;28;92114;-74
2023/03/26 09:15:10;;;;;;;7.30;2.13;;;;;;;;;;4969558;28;94861;-75
2023/03/26 09:17:56;;;;;;;8.65;2.60;;;;;;;;;;4978751;28;92700;-75
2023/03/26 09:20:42;;;;;;;9.52;2.30;;;;;;;;;;4960525;28;93133;-76
2023/03/26 09:23:09;;;;;;;;;;;;;;;;;;4978251;28;92570;-76
2023/03/26 09:25:40;;;;;;;9.70;2.42;;;;;;;;;;4969713;28;114345;-76
2023/03/26 09:28:25;;;;;;;8.43;2.90;;;;;;;;;;5005622;28;92657;-76
2023/03/26 09:30:57;;;;;;;7.93;2.72;;;;;;;;;;4975827;28;93562;-75
2023/03/26 09:33:58;;;;;;;9.32;2.15;;;;;;;;;;4972084;28;92050;-76
2023/03/26 09:36:37;;;;;;;14.23;2.53;;;;;;;;;;4929147;28;97072;-76
2023/03/26 09:39:08;;;;;;;6.97;2.10;;;;;;;;;;4965158;28;93739;-75
2023/03/26 09:41:40;;;;;;;7.43;2.33;;;;;;;;;;4976019;28;94872;-75
2023/03/26 09:44:18;;;;;;;9.95;2.70;;;;;;;;;;4977524;28;95960;-76
2023/03/26 09:46:47;;;;;;;7.45;2.22;;;;;;;;;;4976755;28;94338;-75
2023/03/26 09:49:14;;;;;;;7.28;2.17;;;;;;;;;;4993609;28;92624;-75
2023/03/26 09:51:44;;;;;;;7.88;2.38;;;;;;;;;;4980224;28;92408;-75
2023/03/26 09:54:29;;;;;;;8.30;2.30;;;;;;;;;;4972753;28;92435;-76
2023/03/26 09:57:06;;;;;;;7.10;2.25;;;;;;;;;;4968503;28;94165;-76
2023/03/26 09:59:59;;;;;;;8.68;2.40;;;;;;;;;;4967114;28;92456;-77
2023/03/26 10:02:29;;;;;;;8.95;2.40;;;;;;;;;;4954249;28;92356;-76
2023/03/26 10:05:33;;;;;;;8.75;2.30;;;;;;;;;;4980020;28;92784;-76
2023/03/26 10:08:00;;;;;;;17.48;2.30;;;;;;;;;;4994500;28;95491;-77
2023/03/26 10:10:45;;;;;;;9.63;2.13;;;;;;;;;;4981393;28;92213;-77
2023/03/26 10:13:24;;;;;;;11.15;2.40;;;;;;;;;;4969170;28;93455;-77
2023/03/26 10:15:58;;;;;;;7.88;2.47;;;;;;;;;;4977471;28;95594;-77
2023/03/26 10:18:43;;;;;;;6.68;2.20;;;;;;;;;;4981309;28;92654;-77
2023/03/26 10:21:20;;;;;;;10.10;2.22;;;;;;;;;;4995038;28;92875;-75
2023/03/26 10:24:09;;;;;;;7.95;2.17;;;;;;;;;;4967786;28;93317;-77
2023/03/26 10:26:45;;;;;;;8.00;2.45;;;;;;;;;;4979618;28;93945;-78
2023/03/26 10:29:34;;;;;;;6.80;2.15;;;;;;;;;;4967958;28;93249;-76
2023/03/26 10:32:21;;;;;;;6.95;2.15;;;;;;;;;;4977618;28;96871;-77
2023/03/26 10:34:52;;;;;;;13.70;2.15;;;;;;;;;;4973240;28;94967;-76
2023/03/26 10:37:33;;;;;;;6.47;2.28;;;;;;;;;;4995868;28;92644;-76
2023/03/26 10:40:08;;;;;;;7.50;2.10;;;;;;;;;;4983810;28;92678;-76
2023/03/26 10:42:46;;;;;;;7.35;2.20;;;;;;;;;;4978549;28;95392;-77
2023/03/26 10:45:20;;;;;;;6.05;1.63;;;;;;;;;;4980775;28;92598;-76
2023/03/26 10:47:51;;;;;;;4.75;1.70;;;;;;;;;;5011384;28;94866;-76
2023/03/26 10:50:36;;;;;;;6.47;2.00;;;;;;;;;;4980733;28;93433;-75
2023/03/26 10:53:05;;;;;;;7.57;2.10;;;;;;;;;;4970818;28;91759;-77
2023/03/26 10:55:39;;;;;;;5.28;1.90;;;;;;;;;;5011491;28;92984;-77
2023/03/26 10:58:16;;;;;;;6.47;1.80;;;;;;;;;;4979098;28;92737;-76
2023/03/26 11:00:45;;;;;;;7.00;1.92;;;;;;;;;;4980120;28;95144;-76
2023/03/26 11:03:42;;;;;;;5.80;1.73;;;;;;;;;;4978295;28;95406;-77
2023/03/26 11:06:27;;;;;;;7.70;1.95;;;;;;;;;;4940394;28;92547;-77
2023/03/26 11:09:13;;;;;;;4.70;1.60;;;;;;;;;;4986668;28;94977;-77
2023/03/26 11:11:50;;;;;;;4.85;1.73;;;;;;;;;;4983194;28;93128;-76
2023/03/26 11:14:25;;;;;;;6.63;1.60;;;;;;;;;;4980583;28;92315;-76
2023/03/26 11:17:03;;;;;;;6.32;1.67;;;;;;;;;;4979990;28;93050;-77
2023/03/26 11:19:29;;;;;;;5.78;1.50;;;;;;;;;;4981094;28;92378;-76
2023/03/26 11:22:02;;;;;;;6.47;1.63;;;;;;;;;;4979082;28;92060;-75
2023/03/26 11:24:47;;;;;;;4.85;1.65;;;;;;;;;;4983023;28;93413;-74
2023/03/26 11:27:21;;;;;;;5.43;1.70;;;;;;;;;;4993410;28;94544;-74
2023/03/26 11:30:06;;;;;;;5.28;1.70;;;;;;;;;;4979779;28;94788;-75
2023/03/26 11:32:37;;;;;;;6.43;1.65;;;;;;;;;;4990743;28;92926;-77
2023/03/26 11:35:07;;;;;;;7.30;1.60;;;;;;;;;;4977120;28;92243;-75
2023/03/26 11:37:46;;;;;;;5.82;1.42;;;;;;;;;;4980172;28;92765;-76
2023/03/26 11:40:20;;;;;;;6.47;1.80;;;;;;;;;;4979602;28;97759;-78
2023/03/26 11:42:47;;;;;;;6.78;1.50;;;;;;;;;;4979771;28;92404;-77
2023/03/26 11:45:18;;;;;;;4.95;1.70;;;;;;;;;;4980872;28;92575;-77
2023/03/26 11:47:50;;;;;;;5.63;1.55;;;;;;;;;;4982762;28;92799;-77
2023/03/26 11:50:20;;;;;;;6.65;1.70;;;;;;;;;;4977406;28;92873;-77
2023/03/26 11:52:48;;;;;;;4.75;1.60;;;;;;;;;;4970783;28;98193;-78
2023/03/26 11:55:14;;;;;;;6.55;2.03;;;;;;;;;;4975573;28;92596;-78
2023/03/26 11:57:44;;;;;;;6.20;1.70;;;;;;;;;;4980221;28;92631;-78
2023/03/26 12:00:16;;;;;;;7.97;2.40;;;;;;;;;;4977470;28;97138;-77
2023/03/26 12:02:43;;;;;;;5.90;2.03;;;;;;;;;;4979395;28;92200;-77
2023/03/26 12:05:10;;;;;;;7.05;1.80;;;;;;;;;;4980105;28;92396;-77
2023/03/26 12:07:44;;;;;;;6.07;1.88;;;;;;;;;;4978968;28;93529;-77
2023/03/26 12:10:23;;;;;;;6.55;1.98;;;;;;;;;;4980986;28;91523;-78
2023/03/26 12:12:55;;;;;;;5.80;1.80;;;;;;;;;;4994597;28;94788;-78
2023/03/26 12:15:23;;;;;;;5.97;1.45;;;;;;;;;;4980131;28;92570;-78
2023/03/26 12:17:55;;;;;;;8.02;1.70;;;;;;;;;;4974437;28;95459;-78
2023/03/26 12:20:24;;;;;;;4.82;1.77;;;;;;;;;;4976544;28;92589;-78
2023/03/26 12:22:52;;;;;;;5.18;1.77;;;;;;;;;;4978520;28;92583;-77
2023/03/26 12:25:20;;;;;;;4.97;1.98;;;;;;;;;;4980012;28;92907;-77
2023/03/26 12:27:48;;;;;;;6.07;1.85;;;;;;;;;;4978863;28;92155;-78
2023/03/26 12:30:19;;;;;;;6.05;1.75;;;;;;;;;;4981308;28;92409;-78
2023/03/26 12:32:46;;;;;;;6.75;1.90;;;;;;;;;;4978510;28;92315;-78
2023/03/26 12:35:12;;;;;;;;;;;;;;;;;;4978610;28;91702;-79
2023/03/26 12:37:43;;;;;;;5.00;1.60;;;;;;;;;;5002354;28;92541;-77
2023/03/26 12:40:28;;;;;;;9.20;2.10;;;;;;;;;;4978953;28;97335;-78
2023/03/26 12:42:56;;;;;;;6.60;1.80;;;;;;;;;;4978348;28;94793;-78
2023/03/26 12:45:43;;;;;;;4.88;1.65;;;;;;;;;;4971137;28;96372;-78
2023/03/26 12:48:11;;;;;;;6.97;1.63;;;;;;;;;;4978951;28;97572;-78
2023/03/26 12:50:41;;;;;;;5.95;1.75;;;;;;;;;;4977507;28;93648;-78
2023/03/26 12:53:18;;;;;;;6.45;1.80;;;;;;;;;;4979965;28;92705;-80
2023/03/26 12:55:45;;;;;;;6.47;1.60;;;;;;;;;;4997119;28;95423;-79
2023/03/26 12:58:20;;;;;;;7.63;2.10;;;;;;;;;;4979159;28;92825;-78
2023/03/26 13:01:01;;;;;;;6.57;1.85;;;;;;;;;;4977138;28;92491;-78
2023/03/26 13:03:42;;;;;;;8.10;1.90;;;;;;;;;;4979378;28;92093;-78
2023/03/26 13:06:14;;;;;;;6.28;1.60;;;;;;;;;;4966983;28;93804;-77
2023/03/26 13:08:41;;;;;;;5.95;1.60;;;;;;;;;;4977493;28;94792;-77
2023/03/26 13:11:30;;;;;;;5.43;1.77;;;;;;;;;;4992536;28;92501;-78
2023/03/26 13:14:09;;;;;;;5.25;1.55;;;;;;;;;;4976039;28;92557;-78
2023/03/26 13:16:39;;;;;;;6.85;1.73;;;;;;;;;;4984631;28;93053;-79
2023/03/26 13:19:08;;;;;;;4.63;1.80;;;;;;;;;;4979417;28;92427;-79
2023/03/26 13:21:35;;;;;;;11.45;1.95;;;;;;;;;;4978022;28;92457;-78
2023/03/26 13:24:16;;;;;;;5.25;1.60;;;;;;;;;;4977823;28;92173;-78
2023/03/26 13:26:53;;;;;;;9.20;1.70;;;;;;;;;;4991613;28;94783;-78
2023/03/26 13:29:19;;;;;;;5.47;1.73;;;;;;;;;;4979496;28;92770;-78
2023/03/26 13:32:03;;;;;;;7.28;1.60;;;;;;;;;;4973523;28;92170;-79
2023/03/26 13:34:33;;;;;;;6.75;1.65;;;;;;;;;;4979419;28;94803;-78
2023/03/26 13:37:22;;;;;;;8.02;1.75;;;;;;;;;;4987051;28;94399;-78
2023/03/26 13:40:08;;;;;;;5.15;1.55;;;;;;;;;;4980915;28;92733;-78
2023/03/26 13:42:38;;;;;;;5.30;1.63;;;;;;;;;;4984285;28;93280;-77
2023/03/26 13:45:21;;;;;;;4.68;1.42;;;;;;;;;;4999769;28;92319;-78
2023/03/26 13:47:49;;;;;;;5.47;1.60;;;;;;;;;;4985292;28;92400;-78
2023/03/26 13:50:25;;;;;;;4.95;1.60;;;;;;;;;;4979317;28;92538;-78
2023/03/26 13:52:51;;;;;;;3.70;1.40;;;;;;;;;;4977843;28;91708;-77
2023/03/26 13:55:21;;;;;;;5.93;1.50;;;;;;;;;;4990236;28;92539;-78
2023/03/26 13:57:54;;;;;;;5.82;1.40;;;;;;;;;;4987786;28;92176;-78
2023/03/26 14:00:40;;;;;;;5.22;1.50;;;;;;;;;;4967525;28;95512;-78
2023/03/26 14:03:12;;;;;;;6.40;1.80;;;;;;;;;;4999036;28;95027;-78
2023/03/26 14:05:43;;;;;;;4.75;1.30;;;;;;;;;;5005908;28;92734;-77
2023/03/26 14:08:13;;;;;;;6.25;1.50;;;;;;;;;;4977706;28;96487;-77
2023/03/26 14:10:42;;;;;;;6.07;1.40;;;;;;;;;;4974242;28;93396;-77
2023/03/26 14:13:09;;;;;;;7.03;1.73;;;;;;;;;;4974556;28;92418;-76
2023/03/26 14:15:43;;;;;;;15.95;1.80;;;;;;;;;;4992733;28;92537;-78
2023/03/26 14:18:29;;;;;;;4.80;1.40;;;;;;;;;;4976309;28;96368;-77
2023/03/26 14:20:58;;;;;;;5.85;1.40;;;;;;;;;;4978776;28;92505;-78
2023/03/26 14:23:28;;;;;;;9.80;1.50;;;;;;;;;;4976561;28;92365;-78
2023/03/26 14:25:55;;;;;;;4.07;1.42;;;;;;;;;;4973383;28;95794;-78
2023/03/26 14:28:27;;;;;;;5.20;1.67;;;;;;;;;;4981071;28;94848;-76
2023/03/26 14:31:06;;;;;;;4.68;1.45;;;;;;;;;;4975847;28;92653;-79
2023/03/26 14:33:39;;;;;;;5.65;1.42;;;;;;;;;;4980640;28;92049;-78
2023/03/26 14:36:15;;;;;;;3.38;1.30;;;;;;;;;;4979453;28;92419;-78
2023/03/26 14:39:00;;;;;;;4.93;1.50;;;;;;;;;;4969466;28;92828;-78
2023/03/26 14:41:45;;;;;;;5.90;1.40;;;;;;;;;;4980478;28;92425;-78
2023/03/26 14:44:34;;;;;;;5.22;1.20;;;;;;;;;;4976758;28;96947;-78
2023/03/26 14:47:22;;;;;;;4.25;1.30;;;;;;;;;;4979455;28;94374;-78
2023/03/26 14:49:57;;;;;;;3.70;1.15;;;;;;;;;;4974999;28;92308;-77
2023/03/26 14:52:38;;;;;;;6.45;1.50;;;;;;;;;;4971561;28;95574;-79
2023/03/26 14:55:11;;;;;;;3.90;1.23;;;;;;;;;;4978140;28;92466;-80
2023/03/26 14:57:57;;;;;;;3.63;1.40;;;;;;;;;;4966862;28;92528;-77
2023/03/26 15:00:23;;;;;;;5.28;1.42;;;;;;;;;;4963964;28;97868;-78
2023/03/26 15:03:12;;;;;;;5.00;1.27;;;;;;;;;;4993438;28;92683;-78
2023/03/26 15:05:57;;;;;;;5.22;1.40;;;;;;;;;;4992846;28;95274;-78
2023/03/26 15:08:47;;;;;;;5.30;1.27;;;;;;;;;;4987119;28;99333;-78
2023/03/26 15:11:33;;;;;;;4.82;1.20;;;;;;;;;;4972149;28;91925;-79
2023/03/26 15:13:59;;;;;;;;;;;;;;;;;;4982810;28;92288;-79
2023/03/26 15:16:47;;;;;;;3.60;1.30;;;;;;;;;;4970481;28;116798;-77
2023/03/26 15:19:29;;;;;;;4.10;1.48;;;;;;;;;;4976865;28;95479;-78
2023/03/26 15:22:14;;;;;;;5.85;1.42;;;;;;;;;;4971071;28;92519;-78
2023/03/26 15:25:03;;;;;;;4.35;1.40;;;;;;;;;;4972139;28;92029;-78
2023/03/26 15:27:46;;;;;;;3.97;1.25;;;;;;;;;;4956135;28;92847;-77
2023/03/26 15:30:15;;;;;;;4.57;1.25;;;;;;;;;;4960928;28;97404;-78
2023/03/26 15:33:03;;;;;;;4.82;1.30;;;;;;;;;;4973527;28;93458;-77
2023/03/26 15:35:30;;;;;;;3.83;1.02;;;;;;;;;;5005420;28;93594;-78